createdAt,value
2023-02-04T00:00:23.653Z,46.55
2023-02-04T00:02:51.301Z,66.50
2023-02-04T00:05:19.301Z,53.22
2023-02-04T00:07:46.353Z,51.35
2023-02-04T00:10:13.526Z,53.10
2023-02-04T00:12:40.574Z,45.88
2023-02-04T00:15:08.377Z,47.17
2023-02-04T00:17:35.871Z,47.78
2023-02-04T00:20:03.058Z,50.78
2023-02-04T00:22:30.248Z,47.97
2023-02-04T00:24:57.450Z,45.13
2023-02-04T00:27:24.648Z,43.67
2023-02-04T00:29:51.786Z,37.25
2023-02-04T00:32:18.859Z,38.08
2023-02-04T00:34:46.005Z,37.90
2023-02-04T00:37:13.161Z,38.92
2023-02-04T00:39:40.293Z,33.65
2023-02-04T00:42:08.341Z,40.30
2023-02-04T00:44:36.713Z,30.10
2023-02-04T00:47:04.407Z,30.10
2023-02-04T00:49:31.799Z,43.85
2023-02-04T00:51:59.413Z,51.17
2023-02-04T00:54:26.914Z,45.10
2023-02-04T00:56:53.965Z,52.45
2023-02-04T00:59:20.950Z,49.08
2023-02-04T01:01:48.017Z,56.92
2023-02-04T01:04:16.643Z,48.78
2023-02-04T01:06:43.979Z,49.03
2023-02-04T01:09:11.882Z,47.15
2023-02-04T01:11:39.107Z,42.60
2023-02-04T01:14:06.232Z,40.92
2023-02-04T01:16:33.403Z,41.67
2023-02-04T01:19:00.715Z,41.97
2023-02-04T01:21:27.929Z,38.25
2023-02-04T01:23:55.196Z,36.33
2023-02-04T01:26:22.729Z,36.75
2023-02-04T01:28:50.319Z,37.17
2023-02-04T01:31:17.971Z,35.40
2023-02-04T01:33:45.234Z,35.38
2023-02-04T01:36:12.554Z,36.25
2023-02-04T01:38:40.411Z,34.72
2023-02-04T01:41:07.633Z,39.35
2023-02-04T01:43:34.719Z,44.63
2023-02-04T01:46:02.885Z,39.38
2023-02-04T01:48:30.791Z,47.35
2023-02-04T01:51:11.972Z,35.00
2023-02-04T01:53:39.992Z,42.13
2023-02-04T01:56:20.257Z,40.70
2023-02-04T01:58:48.743Z,42.92
2023-02-04T02:01:35.930Z,42.58
2023-02-04T02:04:03.540Z,40.88
2023-02-04T02:06:30.986Z,37.67
2023-02-04T02:08:58.731Z,36.72
2023-02-04T02:11:27.168Z,37.35
2023-02-04T02:13:55.044Z,34.10
2023-02-04T02:16:22.559Z,36.38
2023-02-04T02:18:50.176Z,36.47
2023-02-04T02:21:21.591Z,35.03
2023-02-04T02:23:51.890Z,34.15
2023-02-04T02:26:21.088Z,29.27
2023-02-04T02:28:49.211Z,32.00
2023-02-04T02:31:18.908Z,27.73
2023-02-04T02:33:46.472Z,25.65
2023-02-04T02:36:14.890Z,24.65
2023-02-04T02:38:42.276Z,23.25
2023-02-04T02:41:10.582Z,22.75
2023-02-04T02:43:38.719Z,19.35
2023-02-04T02:46:06.281Z,21.27
2023-02-04T02:48:33.736Z,18.42
2023-02-04T02:51:00.867Z,14.55
2023-02-04T02:53:28.146Z,16.13
2023-02-04T02:55:55.259Z,17.13
2023-02-04T02:58:32.808Z,17.95
2023-02-04T03:01:06.463Z,16.52
2023-02-04T03:03:36.682Z,15.77
2023-02-04T03:06:17.803Z,13.77
2023-02-04T03:08:45.623Z,16.13
2023-02-04T03:11:12.805Z,13.43
2023-02-04T03:13:40.796Z,15.77
2023-02-04T03:16:09.007Z,13.75
2023-02-04T03:18:37.258Z,14.05
2023-02-04T03:21:06.815Z,15.88
2023-02-04T03:23:36.214Z,15.85
2023-02-04T03:26:05.088Z,13.35
2023-02-04T03:28:32.398Z,15.00
2023-02-04T03:31:00.071Z,13.65
2023-02-04T03:33:32.057Z,11.85
2023-02-04T03:35:59.757Z,11.50
2023-02-04T03:38:27.015Z,9.05
2023-02-04T03:40:54.278Z,9.23
2023-02-04T03:43:21.349Z,9.52
2023-02-04T03:45:48.503Z,11.10
2023-02-04T03:48:15.533Z,11.85
2023-02-04T03:50:43.152Z,10.77
2023-02-04T03:53:10.731Z,10.77
2023-02-04T03:55:37.812Z,10.15
2023-02-04T03:58:05.329Z,7.32
2023-02-04T04:00:33.000Z,7.95
2023-02-04T04:03:00.797Z,8.98
2023-02-04T04:05:28.893Z,7.63
2023-02-04T04:07:56.257Z,7.13
2023-02-04T04:10:23.625Z,9.32
2023-02-04T04:12:50.947Z,8.40
2023-02-04T04:15:18.209Z,9.32
2023-02-04T04:17:45.426Z,11.02
2023-02-04T04:20:13.158Z,11.02
2023-02-04T04:22:40.648Z,13.88
2023-02-04T04:25:08.812Z,15.50
2023-02-04T04:27:35.975Z,16.05
2023-02-04T04:30:03.922Z,19.42
2023-02-04T04:32:30.987Z,18.33
2023-02-04T04:34:58.129Z,16.08
2023-02-04T04:37:25.207Z,17.73
2023-02-04T04:39:52.236Z,13.73
2023-02-04T04:42:19.302Z,15.70
2023-02-04T04:44:46.385Z,12.23
2023-02-04T04:47:13.424Z,16.60
2023-02-04T04:49:40.540Z,14.57
2023-02-04T04:52:07.634Z,15.38
2023-02-04T04:54:34.649Z,13.73
2023-02-04T04:57:01.625Z,20.45
2023-02-04T04:59:28.734Z,17.25
2023-02-04T05:01:55.936Z,15.90
2023-02-04T05:04:23.034Z,17.75
2023-02-04T05:06:50.144Z,14.00
2023-02-04T05:09:17.704Z,13.60
2023-02-04T05:11:44.801Z,14.27
2023-02-04T05:14:11.900Z,15.50
2023-02-04T05:16:39.014Z,15.95
2023-02-04T05:19:06.065Z,16.92
2023-02-04T05:21:33.220Z,19.98
2023-02-04T05:24:00.346Z,22.45
2023-02-04T05:26:30.462Z,19.13
2023-02-04T05:29:00.671Z,19.58
2023-02-04T05:31:28.006Z,16.48
2023-02-04T05:33:55.517Z,20.40
2023-02-04T05:36:22.739Z,18.20
2023-02-04T05:38:50.038Z,17.02
2023-02-04T05:41:17.273Z,20.67
2023-02-04T05:43:44.402Z,18.85
2023-02-04T05:46:11.427Z,20.58
2023-02-04T05:48:40.350Z,19.83
2023-02-04T05:51:07.446Z,22.63
2023-02-04T05:53:34.552Z,16.17
2023-02-04T05:56:01.786Z,21.20
2023-02-04T05:58:33.751Z,22.95
2023-02-04T06:01:01.967Z,22.58
2023-02-04T06:03:30.760Z,22.30
2023-02-04T06:05:57.979Z,21.88
2023-02-04T06:08:25.416Z,25.33
2023-02-04T06:10:52.495Z,26.52
2023-02-04T06:13:19.742Z,22.73
2023-02-04T06:15:46.792Z,26.15
2023-02-04T06:18:14.206Z,24.75
2023-02-04T06:20:41.247Z,29.70
2023-02-04T06:23:08.531Z,27.23
2023-02-04T06:25:36.015Z,26.08
2023-02-04T06:28:03.390Z,26.88
2023-02-04T06:30:30.901Z,30.30
2023-02-04T06:32:58.440Z,23.92
2023-02-04T06:35:25.480Z,23.05
2023-02-04T06:37:52.568Z,25.45
2023-02-04T06:40:19.931Z,21.50
2023-02-04T06:42:47.036Z,20.13
2023-02-04T06:45:14.183Z,23.90
2023-02-04T06:47:41.251Z,21.15
2023-02-04T06:50:08.820Z,23.27
2023-02-04T06:52:36.254Z,21.95
2023-02-04T06:55:03.410Z,27.88
2023-02-04T06:57:30.511Z,25.65
2023-02-04T06:59:57.481Z,25.90
2023-02-04T07:02:24.537Z,28.58
2023-02-04T07:04:51.600Z,34.63
2023-02-04T07:07:18.729Z,27.35
2023-02-04T07:09:45.896Z,49.42
2023-02-04T07:12:14.788Z,29.98
2023-02-04T07:14:43.184Z,24.67
2023-02-04T07:17:10.361Z,22.63
2023-02-04T07:19:37.526Z,21.88
2023-02-04T07:22:05.459Z,20.17
2023-02-04T07:24:32.599Z,24.50
2023-02-04T07:27:01.678Z,32.35
2023-02-04T07:29:29.662Z,19.05
2023-02-04T07:31:56.962Z,22.95
2023-02-04T07:34:24.376Z,39.13
2023-02-04T07:36:51.783Z,26.25
2023-02-04T07:39:19.084Z,19.55
2023-02-04T07:41:46.292Z,20.55
2023-02-04T07:44:13.375Z,20.35
2023-02-04T07:46:40.488Z,15.27
2023-02-04T07:49:07.528Z,33.20
2023-02-04T07:51:35.485Z,27.75
2023-02-04T07:54:02.502Z,27.10
2023-02-04T07:56:29.637Z,18.42
2023-02-04T07:58:56.736Z,23.27
2023-02-04T08:01:23.903Z,15.35
2023-02-04T08:03:51.021Z,19.67
2023-02-04T08:06:18.007Z,18.67
2023-02-04T08:08:45.131Z,17.02
2023-02-04T08:11:12.247Z,12.75
2023-02-04T08:13:39.354Z,12.02
2023-02-04T08:16:06.813Z,13.40
2023-02-04T08:18:35.253Z,18.00
2023-02-04T08:21:04.918Z,11.95
2023-02-04T08:23:33.359Z,12.57
2023-02-04T08:26:00.613Z,18.35
2023-02-04T08:28:27.674Z,11.88
2023-02-04T08:30:56.312Z,17.95
2023-02-04T08:33:23.649Z,11.82
2023-02-04T08:35:52.718Z,15.55
2023-02-04T08:38:19.790Z,18.85
2023-02-04T08:40:47.243Z,20.42
2023-02-04T08:43:14.460Z,20.25
2023-02-04T08:45:41.527Z,19.00
2023-02-04T08:48:09.656Z,12.95
2023-02-04T08:50:38.843Z,11.70
2023-02-04T08:53:06.116Z,11.63
2023-02-04T08:55:33.283Z,11.65
2023-02-04T08:58:01.472Z,6.20
2023-02-04T09:00:28.946Z,3.90
2023-02-04T09:02:56.188Z,11.45
2023-02-04T09:05:23.392Z,4.82
2023-02-04T09:07:50.762Z,5.30
2023-02-04T09:10:18.210Z,6.50
2023-02-04T09:12:45.423Z,6.15
2023-02-04T09:15:12.921Z,7.40
2023-02-04T09:17:40.612Z,6.78
2023-02-04T09:20:08.043Z,7.97
2023-02-04T09:22:36.797Z,7.53
2023-02-04T09:25:04.539Z,6.63
2023-02-04T09:27:31.729Z,5.97
2023-02-04T09:29:58.891Z,5.60
2023-02-04T09:32:25.956Z,5.45
2023-02-04T09:34:52.987Z,11.20
2023-02-04T09:37:20.367Z,6.10
2023-02-04T09:39:47.372Z,9.82
2023-02-04T09:42:16.481Z,7.35
2023-02-04T09:44:45.485Z,4.57
2023-02-04T09:47:15.698Z,3.17
2023-02-04T09:49:47.140Z,3.25
2023-02-04T09:52:17.069Z,2.25
2023-02-04T09:54:45.360Z,2.70
2023-02-04T09:57:17.701Z,2.55
2023-02-04T09:59:46.280Z,2.72
2023-02-04T10:02:22.267Z,3.53
2023-02-04T10:04:51.486Z,1.80
2023-02-04T10:07:22.562Z,3.75
2023-02-04T10:09:50.512Z,1.42
2023-02-04T10:12:18.104Z,2.47
2023-02-04T10:14:45.360Z,4.10
2023-02-04T10:17:15.685Z,5.15
2023-02-04T10:19:42.857Z,2.30
2023-02-04T10:22:21.624Z,2.28
2023-02-04T10:24:48.731Z,2.47
2023-02-04T10:27:16.528Z,2.42
2023-02-04T10:29:55.173Z,3.35
2023-02-04T10:32:28.648Z,2.40
2023-02-04T10:35:03.619Z,5.25
2023-02-04T10:37:32.381Z,3.97
2023-02-04T10:39:59.637Z,0.65
2023-02-04T10:42:39.067Z,3.65
2023-02-04T10:45:22.802Z,13.02
2023-02-04T10:47:54.953Z,3.80
2023-02-04T10:50:27.745Z,1.70
2023-02-04T10:53:17.547Z,2.22
2023-02-04T10:55:47.075Z,2.88
2023-02-04T10:58:19.099Z,2.65
2023-02-04T11:00:46.267Z,2.75
2023-02-04T11:03:24.265Z,2.45
2023-02-04T11:05:52.371Z,3.75
2023-02-04T11:08:24.512Z,0.98
2023-02-04T11:10:58.301Z,2.17
2023-02-04T11:13:57.977Z,1.45
2023-02-04T11:16:26.470Z,1.60
2023-02-04T11:18:55.132Z,1.23
2023-02-04T11:21:29.737Z,3.95
2023-02-04T11:24:07.188Z,3.38
2023-02-04T11:26:40.292Z,1.58
2023-02-04T11:31:34.359Z,3.20
2023-02-04T11:34:16.708Z,2.63
2023-02-04T11:37:01.518Z,1.83
2023-02-04T11:39:51.086Z,1.45
2023-02-04T11:42:27.390Z,2.35
2023-02-04T11:45:03.091Z,4.15
2023-02-04T11:47:37.430Z,4.70
2023-02-04T11:50:42.521Z,1.95
2023-02-04T11:53:12.082Z,4.45
2023-02-04T11:55:47.419Z,2.10
2023-02-04T11:58:17.528Z,2.92
2023-02-04T12:00:45.206Z,2.53
2023-02-04T12:03:33.658Z,3.92
2023-02-04T12:06:01.012Z,2.88
2023-02-04T12:08:34.097Z,2.65
2023-02-04T12:11:30.672Z,4.63
2023-02-04T12:14:09.421Z,3.22
2023-02-04T12:16:51.671Z,2.00
2023-02-04T12:19:19.305Z,2.95
2023-02-04T12:21:46.544Z,5.57
2023-02-04T12:24:13.830Z,2.08
2023-02-04T12:26:41.391Z,1.30
2023-02-04T12:29:09.637Z,1.63
2023-02-04T12:31:37.005Z,2.05
2023-02-04T12:34:04.135Z,2.67
2023-02-04T12:36:31.260Z,4.20
2023-02-04T12:39:03.195Z,3.83
2023-02-04T12:41:30.593Z,4.25
2023-02-04T12:43:57.711Z,4.07
2023-02-04T12:46:25.156Z,4.75
2023-02-04T12:48:53.093Z,4.03
2023-02-04T12:51:21.289Z,5.53
2023-02-04T12:53:49.514Z,2.13
2023-02-04T12:56:17.046Z,2.15
2023-02-04T12:58:44.148Z,2.20
2023-02-04T13:01:11.664Z,1.17
2023-02-04T13:03:39.440Z,0.70
2023-02-04T13:06:06.764Z,4.95
2023-02-04T13:08:34.089Z,2.83
2023-02-04T13:11:01.279Z,2.05
2023-02-04T13:13:28.959Z,2.13
2023-02-04T13:15:56.009Z,1.90
2023-02-04T13:18:23.106Z,2.30
2023-02-04T13:20:50.311Z,2.40
2023-02-04T13:23:17.532Z,2.00
2023-02-04T13:25:45.393Z,1.67
2023-02-04T13:28:12.594Z,3.38
2023-02-04T13:30:39.894Z,1.88
2023-02-04T13:33:07.087Z,3.30
2023-02-04T13:35:34.413Z,1.63
2023-02-04T13:38:01.788Z,4.28
2023-02-04T13:40:29.185Z,3.10
2023-02-04T13:42:57.846Z,2.65
2023-02-04T13:45:25.275Z,5.40
2023-02-04T13:47:53.021Z,4.03
2023-02-04T13:50:20.174Z,2.60
2023-02-04T13:52:47.816Z,2.42
2023-02-04T13:55:15.629Z,3.47
2023-02-04T13:57:44.845Z,1.67
2023-02-04T14:00:15.129Z,1.38
2023-02-04T14:02:44.505Z,2.92
2023-02-04T14:05:12.722Z,1.70
2023-02-04T14:07:42.449Z,2.78
2023-02-04T14:10:10.640Z,3.00
2023-02-04T14:12:38.081Z,4.07
2023-02-04T14:15:05.439Z,3.80
2023-02-04T14:17:32.623Z,3.72
2023-02-04T14:20:00.090Z,2.65
2023-02-04T14:22:27.240Z,4.63
2023-02-04T14:24:54.355Z,5.38
2023-02-04T14:27:21.702Z,5.50
2023-02-04T14:29:48.906Z,3.35
2023-02-04T14:32:16.167Z,4.30
2023-02-04T14:34:43.227Z,3.80
2023-02-04T14:37:10.353Z,5.20
2023-02-04T14:39:37.490Z,4.00
2023-02-04T14:42:05.625Z,3.40
2023-02-04T14:44:32.925Z,4.82
2023-02-04T14:47:00.129Z,4.13
2023-02-04T14:49:27.304Z,4.22
2023-02-04T14:51:55.167Z,5.82
2023-02-04T14:54:22.230Z,4.47
2023-02-04T14:56:50.632Z,3.05
2023-02-04T14:59:17.843Z,6.38
2023-02-04T15:01:46.365Z,4.50
2023-02-04T15:04:13.977Z,2.70
2023-02-04T15:06:41.037Z,2.38
2023-02-04T15:09:08.272Z,5.50
2023-02-04T15:11:35.377Z,5.53
2023-02-04T15:14:02.581Z,4.65
2023-02-04T15:16:29.923Z,8.50
2023-02-04T15:18:57.244Z,4.53
2023-02-04T15:21:24.303Z,3.92
2023-02-04T15:23:51.450Z,5.55
2023-02-04T15:26:18.730Z,3.17
2023-02-04T15:28:45.839Z,5.07
2023-02-04T15:31:13.030Z,4.63
2023-02-04T15:33:40.109Z,4.78
2023-02-04T15:36:07.419Z,3.60
2023-02-04T15:38:34.429Z,5.45
2023-02-04T15:41:01.826Z,5.85
2023-02-04T15:43:28.915Z,4.25
2023-02-04T15:45:56.443Z,6.22
2023-02-04T15:48:24.330Z,5.75
2023-02-04T15:50:51.698Z,3.65
2023-02-04T15:53:18.693Z,4.00
2023-02-04T15:55:45.979Z,5.57
2023-02-04T15:58:13.234Z,5.85
2023-02-04T16:00:40.604Z,6.80
2023-02-04T16:03:07.741Z,6.03
2023-02-04T16:05:34.964Z,5.13
2023-02-04T16:08:02.137Z,4.65
2023-02-04T16:10:29.302Z,8.50
2023-02-04T16:13:00.211Z,7.05
2023-02-04T16:15:27.397Z,7.50
2023-02-04T16:17:56.297Z,8.93
2023-02-04T16:20:23.976Z,9.45
2023-02-04T16:22:51.098Z,8.32
2023-02-04T16:25:18.462Z,11.05
2023-02-04T16:27:45.635Z,7.57
2023-02-04T16:30:13.062Z,8.32
2023-02-04T16:32:40.264Z,5.40
2023-02-04T16:35:07.799Z,6.38
2023-02-04T16:37:37.813Z,6.07
2023-02-04T16:40:06.589Z,4.85
2023-02-04T16:42:34.057Z,4.22
2023-02-04T16:45:01.180Z,3.45
2023-02-04T16:47:28.314Z,9.65
2023-02-04T16:50:08.137Z,7.50
2023-02-04T16:52:35.329Z,3.30
2023-02-04T16:55:02.355Z,6.75
2023-02-04T16:57:29.611Z,4.45
2023-02-04T16:59:56.862Z,6.00
2023-02-04T17:02:23.924Z,4.40
2023-02-04T17:04:51.125Z,4.30
2023-02-04T17:07:18.279Z,5.40
2023-02-04T17:09:45.368Z,6.35
2023-02-04T17:12:12.536Z,3.80
2023-02-04T17:14:41.233Z,4.25
2023-02-04T17:17:08.454Z,8.80
2023-02-04T17:19:35.691Z,5.57
2023-02-04T17:22:02.776Z,3.65
2023-02-04T17:24:30.042Z,4.78
2023-02-04T17:26:57.288Z,4.60
2023-02-04T17:29:25.170Z,3.35
2023-02-04T17:31:53.150Z,5.72
2023-02-04T17:34:20.339Z,3.67
2023-02-04T17:36:47.555Z,5.53
2023-02-04T17:39:14.866Z,3.05
2023-02-04T17:41:42.081Z,3.70
2023-02-04T17:44:10.131Z,5.20
2023-02-04T17:46:39.301Z,7.85
2023-02-04T17:49:06.424Z,4.93
2023-02-04T17:51:34.106Z,2.78
2023-02-04T17:54:01.609Z,6.07
2023-02-04T17:56:28.770Z,2.88
2023-02-04T17:58:56.991Z,4.55
2023-02-04T18:01:25.546Z,15.13
2023-02-04T18:03:52.925Z,9.90
2023-02-04T18:06:23.969Z,7.55
2023-02-04T18:08:53.034Z,5.55
2023-02-04T18:11:27.889Z,7.05
2023-02-04T18:13:59.993Z,11.27
2023-02-04T18:16:30.437Z,8.27
2023-02-04T18:19:17.287Z,6.63
2023-02-04T18:21:44.454Z,5.50
2023-02-04T18:24:11.749Z,5.03
2023-02-04T18:26:44.436Z,4.70
2023-02-04T18:29:38.652Z,2.95
2023-02-04T18:32:29.474Z,2.97
2023-02-04T18:34:57.785Z,3.58
2023-02-04T18:37:32.666Z,3.90
2023-02-04T18:40:25.731Z,4.20
2023-02-04T18:43:08.199Z,4.88
2023-02-04T18:45:35.952Z,6.10
2023-02-04T18:48:23.207Z,4.80
2023-02-04T18:50:53.742Z,7.78
2023-02-04T18:53:26.405Z,4.85
2023-02-04T18:55:56.718Z,3.83
2023-02-04T18:58:36.700Z,5.13
2023-02-04T19:01:28.393Z,5.38
2023-02-04T19:03:57.653Z,8.60
2023-02-04T19:06:38.964Z,5.32
2023-02-04T19:09:24.886Z,6.05
2023-02-04T19:11:56.218Z,8.82
2023-02-04T19:14:39.933Z,6.90
2023-02-04T19:19:58.416Z,8.23
2023-02-04T19:22:48.000Z,6.47
2023-02-04T19:25:34.325Z,8.05
2023-02-04T19:28:04.175Z,6.03
2023-02-04T19:30:31.243Z,5.55
2023-02-04T19:33:01.569Z,8.00
2023-02-04T19:35:35.867Z,6.63
2023-02-04T19:38:27.996Z,5.72
2023-02-04T19:40:55.127Z,5.15
2023-02-04T19:43:29.947Z,11.25
2023-02-04T19:45:57.264Z,8.27
2023-02-04T19:48:36.434Z,7.05
2023-02-04T19:51:32.901Z,10.35
2023-02-04T19:54:20.197Z,10.68
2023-02-04T19:56:48.084Z,10.07
2023-02-04T19:59:29.190Z,8.95
2023-02-04T20:02:32.860Z,8.85
2023-02-04T20:05:00.437Z,10.13
2023-02-04T20:07:38.633Z,7.53
2023-02-04T20:10:08.939Z,11.65
2023-02-04T20:12:36.944Z,7.30
2023-02-04T20:15:23.850Z,6.70
2023-02-04T20:17:52.347Z,8.82
2023-02-04T20:20:31.178Z,5.63
2023-02-04T20:23:16.795Z,5.40
2023-02-04T20:25:47.116Z,6.43
2023-02-04T20:28:19.067Z,4.63
2023-02-04T20:30:48.309Z,5.60
2023-02-04T20:33:47.494Z,5.32
2023-02-04T20:36:26.647Z,4.18
2023-02-04T20:39:24.900Z,5.38
2023-02-04T20:41:52.001Z,6.93
2023-02-04T20:44:29.258Z,9.52
2023-02-04T20:47:17.529Z,8.05
2023-02-04T20:49:57.949Z,9.35
2023-02-04T20:52:40.531Z,7.00
2023-02-04T20:55:23.123Z,8.75
2023-02-04T20:57:52.919Z,10.18
2023-02-04T21:00:39.758Z,9.27
2023-02-04T21:03:43.593Z,11.00
2023-02-04T21:06:23.286Z,9.63
2023-02-04T21:08:52.410Z,8.75
2023-02-04T21:11:20.386Z,5.38
2023-02-04T21:13:47.861Z,3.80
2023-02-04T21:16:15.829Z,5.15
2023-02-04T21:18:43.180Z,3.78
2023-02-04T21:21:10.590Z,4.80
2023-02-04T21:23:38.075Z,4.88
2023-02-04T21:26:06.232Z,3.53
2023-02-04T21:28:33.774Z,6.93
2023-02-04T21:31:01.195Z,5.57
2023-02-04T21:33:28.618Z,6.07
2023-02-04T21:35:55.931Z,5.63
2023-02-04T21:38:23.070Z,3.58
2023-02-04T21:40:50.139Z,3.60
2023-02-04T21:43:17.261Z,3.45
2023-02-04T21:45:44.418Z,4.43
2023-02-04T21:48:11.671Z,3.42
2023-02-04T21:50:38.895Z,5.00
2023-02-04T21:53:09.670Z,4.40
2023-02-04T21:55:37.356Z,5.00
2023-02-04T21:58:05.975Z,4.20
2023-02-04T22:00:34.193Z,4.93
2023-02-04T22:03:01.587Z,3.72
2023-02-04T22:05:28.845Z,4.85
2023-02-04T22:07:56.224Z,3.28
2023-02-04T22:10:26.201Z,5.78
2023-02-04T22:12:53.474Z,4.93
2023-02-04T22:15:24.438Z,6.07
2023-02-04T22:17:53.706Z,3.58
2023-02-04T22:20:25.914Z,5.00
2023-02-04T22:22:53.877Z,4.32
2023-02-04T22:25:21.800Z,3.95
2023-02-04T22:27:49.292Z,2.78
2023-02-04T22:30:17.777Z,2.03
2023-02-04T22:32:44.968Z,3.60
2023-02-04T22:35:12.506Z,2.38
2023-02-04T22:37:41.211Z,4.25
2023-02-04T22:40:10.513Z,3.33
2023-02-04T22:42:38.158Z,2.80
2023-02-04T22:45:05.663Z,3.97
2023-02-04T22:47:32.958Z,1.98
2023-02-04T22:50:00.039Z,2.83
2023-02-04T22:52:27.176Z,3.65
2023-02-04T22:54:54.376Z,3.20
2023-02-04T22:57:21.614Z,3.72
2023-02-04T22:59:49.031Z,4.93
2023-02-04T23:02:16.992Z,4.03
2023-02-04T23:04:44.238Z,3.70
2023-02-04T23:07:12.588Z,3.88
2023-02-04T23:09:39.831Z,3.35
2023-02-04T23:12:12.961Z,4.00
2023-02-04T23:14:45.526Z,2.72
2023-02-04T23:17:13.402Z,3.28
2023-02-04T23:19:40.947Z,2.95
2023-02-04T23:22:09.518Z,4.22
2023-02-04T23:24:37.170Z,3.65
2023-02-04T23:27:05.442Z,3.08
2023-02-04T23:29:35.350Z,6.80
2023-02-04T23:32:02.776Z,3.40
2023-02-04T23:34:30.313Z,2.55
2023-02-04T23:36:57.432Z,4.20
2023-02-04T23:39:24.642Z,5.55
2023-02-04T23:41:52.085Z,5.35
2023-02-04T23:44:19.164Z,3.47
2023-02-04T23:46:46.405Z,5.63
2023-02-04T23:49:13.968Z,5.63
2023-02-04T23:51:41.122Z,3.58
2023-02-04T23:54:08.364Z,6.30
2023-02-04T23:56:35.725Z,4.10
2023-02-04T23:59:02.844Z,4.85
